Time;durP1;ratioP1;P1;durP2;ratioP2;P2;SDS_P1;SDS_P2;PMS_P1;PMS_P2;Temp;Humidity;BMP_temperature;BMP_pressure;BME280_temperature;BME280_humidity;BME280_pressure;Samples;Min_cycle;Max_cycle;Signal;HPM_P1;HPM_P2
2022/04/28 00:01:04;;;;;;;0.10;0.10;;;7.10;1.00;12.80;88037.00;;;;5087072;28;20186;-71
2022/04/28 00:03:33;;;;;;;0.10;0.10;;;7.10;1.00;12.80;88037.00;;;;5093165;28;20238;-72
2022/04/28 00:06:01;;;;;;;0.10;0.10;;;7.20;1.00;12.80;88037.00;;;;5093292;28;20200;-71
2022/04/28 00:08:29;;;;;;;0.00;0.00;;;7.30;1.00;12.80;88037.00;;;;5095332;28;20544;-72
2022/04/28 00:10:57;;;;;;;0.10;0.10;;;7.40;1.00;12.80;88037.00;;;;5095679;28;20193;-72
2022/04/28 00:13:27;;;;;;;0.10;0.10;;;7.40;1.00;12.80;88037.00;;;;5095730;28;20247;-72
2022/04/28 00:15:55;;;;;;;0.10;0.10;;;7.40;1.00;12.80;88037.00;;;;5094540;28;20199;-71
2022/04/28 00:18:25;;;;;;;0.10;0.10;;;7.30;1.00;12.80;88037.00;;;;5095541;28;20243;-71
2022/04/28 00:20:53;;;;;;;0.10;0.10;;;7.00;1.00;12.80;88037.00;;;;5094914;28;20201;-71
2022/04/28 00:23:21;;;;;;;0.10;0.10;;;6.70;1.00;12.80;88037.00;;;;5094886;28;20276;-71
2022/04/28 00:25:49;;;;;;;0.10;0.10;;;6.60;1.00;12.80;88037.00;;;;5089758;28;20209;-71
2022/04/28 00:28:20;;;;;;;0.10;0.10;;;6.60;1.00;12.80;88037.00;;;;5074771;28;20194;-71
2022/04/28 00:30:48;;;;;;;0.10;0.10;;;6.70;1.00;12.80;88037.00;;;;5082699;28;20196;-71
2022/04/28 00:33:16;;;;;;;0.10;0.10;;;6.50;1.00;12.80;88037.00;;;;5094685;28;20274;-71
2022/04/28 00:35:46;;;;;;;0.10;0.10;;;6.50;1.00;12.80;88037.00;;;;5084999;28;20209;-72
2022/04/28 00:38:15;;;;;;;0.10;0.10;;;6.50;1.00;12.80;88037.00;;;;5092850;28;20189;-70
2022/04/28 00:40:43;;;;;;;0.10;0.10;;;6.60;1.00;12.80;88037.00;;;;5094160;28;20614;-71
2022/04/28 00:43:20;;;;;;;0.10;0.10;;;6.70;1.00;12.80;88037.00;;;;5094733;28;20189;-70
2022/04/28 00:45:49;;;;;;;0.10;0.10;;;6.80;1.00;12.80;88037.00;;;;5093874;28;20212;-70
2022/04/28 00:51:08;;;;;;;0.08;0.08;;;7.10;1.00;12.80;88037.00;;;;5099918;28;20189;-70
2022/04/28 00:53:42;;;;;;;0.10;0.10;;;7.00;1.00;12.80;88037.00;;;;5099721;28;20312;-70
2022/04/28 00:56:12;;;;;;;0.10;0.10;;;6.90;1.00;12.80;88037.00;;;;5094202;28;20263;-70
2022/04/28 00:58:40;;;;;;;0.10;0.10;;;6.90;1.00;12.80;88037.00;;;;5093826;28;20196;-70
2022/04/28 01:01:09;;;;;;;0.03;0.03;;;6.90;1.00;12.80;88037.00;;;;5094041;28;20672;-70
2022/04/28 01:03:37;;;;;;;0.10;0.10;;;6.90;1.00;12.80;88037.00;;;;5109332;28;20205;-70
2022/04/28 01:06:07;;;;;;;0.10;0.10;;;6.90;1.00;12.80;88037.00;;;;5084607;28;20273;-70
2022/04/28 01:08:35;;;;;;;0.10;0.10;;;7.00;1.00;12.80;88037.00;;;;5074005;28;20206;-71
2022/04/28 01:11:04;;;;;;;0.10;0.10;;;6.80;1.00;12.80;88037.00;;;;5082317;28;20227;-71
2022/04/28 01:13:38;;;;;;;0.00;0.00;;;6.80;1.00;12.80;88037.00;;;;5091861;28;20252;-71
2022/04/28 01:16:13;;;;;;;0.10;0.10;;;6.70;1.00;12.80;88037.00;;;;5084342;28;20762;-71
2022/04/28 01:18:42;;;;;;;0.10;0.10;;;6.40;1.00;12.80;88037.00;;;;5085923;28;20616;-71
2022/04/28 01:21:11;;;;;;;0.10;0.10;;;6.40;1.00;12.80;88037.00;;;;5093450;28;20185;-71
2022/04/28 01:23:41;;;;;;;0.00;0.00;;;6.40;1.00;12.80;88037.00;;;;5092112;28;20224;-71
2022/04/28 01:26:09;;;;;;;0.00;0.00;;;6.40;1.00;12.80;88037.00;;;;5092042;28;20208;-71
2022/04/28 01:28:37;;;;;;;0.10;0.10;;;6.50;1.00;12.80;88037.00;;;;5092208;28;20287;-71
2022/04/28 01:31:05;;;;;;;0.10;0.10;;;6.50;1.00;12.80;88037.00;;;;5092210;28;20204;-71
2022/04/28 01:33:42;;;;;;;0.10;0.10;;;6.40;1.00;12.80;88037.00;;;;5102374;28;20282;-71
2022/04/28 01:36:15;;;;;;;0.10;0.10;;;6.50;1.00;12.80;88037.00;;;;5089243;28;20212;-71
2022/04/28 01:38:44;;;;;;;0.10;0.10;;;6.50;1.00;12.80;88037.00;;;;5092690;28;20200;-70
2022/04/28 01:41:12;;;;;;;0.10;0.10;;;6.40;1.00;12.80;88037.00;;;;5093280;28;20551;-70
2022/04/28 01:43:41;;;;;;;0.10;0.10;;;6.40;1.00;12.80;88037.00;;;;5108651;28;20201;-70
2022/04/28 01:46:13;;;;;;;0.10;0.10;;;6.40;1.00;12.80;88037.00;;;;5091709;28;20192;-70
2022/04/28 01:49:07;;;;;;;0.10;0.10;;;6.40;1.00;12.80;88037.00;;;;5081078;28;20209;-71
2022/04/28 01:54:59;;;;;;;0.00;0.00;;;6.30;1.00;12.80;88037.00;;;;5092264;28;20647;-72
2022/04/28 01:57:39;;;;;;;0.00;0.00;;;6.30;1.00;12.80;88037.00;;;;5082492;28;20284;-71
2022/04/28 02:00:43;;;;;;;0.10;0.10;;;6.20;1.00;12.80;88037.00;;;;5081130;28;20189;-71
2022/04/28 02:03:13;;;;;;;0.10;0.10;;;6.20;1.00;12.80;88037.00;;;;5071263;28;20198;-71
2022/04/28 02:05:41;;;;;;;0.10;0.10;;;6.10;1.00;12.80;88037.00;;;;5083793;28;20243;-71
2022/04/28 02:08:11;;;;;;;0.10;0.10;;;6.00;1.00;12.80;88037.00;;;;5092123;28;20197;-71
2022/04/28 02:10:39;;;;;;;0.10;0.10;;;5.80;1.00;12.80;88037.00;;;;5092136;28;20201;-71
2022/04/28 02:13:20;;;;;;;0.10;0.10;;;5.60;1.00;12.80;88037.00;;;;5091649;28;20303;-71
2022/04/28 02:16:11;;;;;;;0.10;0.10;;;5.70;1.00;12.80;88037.00;;;;5090002;28;20222;-71
2022/04/28 02:19:03;;;;;;;0.10;0.10;;;5.70;1.00;12.80;88037.00;;;;5091601;28;20283;-71
2022/04/28 02:21:31;;;;;;;0.10;0.10;;;5.60;1.00;12.80;88037.00;;;;5108109;28;20283;-71
2022/04/28 02:24:01;;;;;;;0.10;0.10;;;5.60;1.00;12.80;88037.00;;;;5089461;28;20225;-71
2022/04/28 02:26:29;;;;;;;0.03;0.03;;;5.60;1.00;12.80;88037.00;;;;5107167;28;20319;-71
2022/04/28 02:28:57;;;;;;;0.10;0.10;;;5.70;1.00;12.80;88037.00;;;;5090565;28;20182;-71
2022/04/28 02:31:30;;;;;;;0.10;0.10;;;5.70;1.00;12.80;88037.00;;;;5108108;28;20566;-71
2022/04/28 02:33:59;;;;;;;0.10;0.10;;;5.80;1.00;12.80;88037.00;;;;5092180;28;20224;-72
2022/04/28 02:36:50;;;;;;;0.00;0.00;;;5.90;1.00;12.80;88037.00;;;;5087504;28;20206;-71
2022/04/28 02:39:21;;;;;;;0.05;0.05;;;6.00;1.00;12.80;88037.00;;;;5071438;28;20730;-72
2022/04/28 02:41:52;;;;;;;0.10;0.10;;;6.00;1.00;12.80;88037.00;;;;5104525;28;20208;-71
2022/04/28 02:44:21;;;;;;;0.05;0.05;;;6.00;1.00;12.80;88037.00;;;;5091128;28;20208;-71
2022/04/28 02:46:49;;;;;;;0.10;0.10;;;5.90;1.00;12.80;88037.00;;;;5090724;28;20220;-71
2022/04/28 02:49:22;;;;;;;0.10;0.10;;;5.80;1.00;12.80;88037.00;;;;5090209;28;20622;-70
2022/04/28 02:51:52;;;;;;;0.10;0.10;;;5.70;1.00;12.80;88037.00;;;;5089582;28;20197;-70
2022/04/28 02:54:21;;;;;;;0.10;0.10;;;5.70;1.00;12.80;88037.00;;;;5090455;28;20238;-70
2022/04/28 02:56:49;;;;;;;0.00;0.00;;;5.80;1.00;12.80;88037.00;;;;5100970;28;20251;-71
2022/04/28 02:59:17;;;;;;;0.10;0.10;;;5.70;1.00;12.80;88037.00;;;;5076085;28;20182;-71
2022/04/28 03:01:46;;;;;;;0.10;0.10;;;5.80;1.00;12.80;88037.00;;;;5085939;28;20239;-71
2022/04/28 03:04:14;;;;;;;0.10;0.10;;;5.60;1.00;12.80;88037.00;;;;5090912;28;20305;-71
2022/04/28 03:12:36;;;;;;;0.10;0.10;;;5.40;1.00;12.80;88037.00;;;;5053478;28;20197;-71
2022/04/28 03:15:13;;;;;;;0.00;0.00;;;5.40;1.00;12.80;88037.00;;;;5070287;28;20582;-71
2022/04/28 03:17:41;;;;;;;0.10;0.10;;;5.30;1.00;12.80;88037.00;;;;5106615;28;20227;-71
2022/04/28 03:20:15;;;;;;;0.10;0.10;;;5.30;1.00;12.80;88037.00;;;;5090346;28;20258;-72
2022/04/28 03:22:43;;;;;;;0.10;0.10;;;5.10;1.00;12.80;88037.00;;;;5091030;28;20231;-71
2022/04/28 03:25:13;;;;;;;0.10;0.10;;;5.10;1.00;12.80;88037.00;;;;5090031;28;20705;-71
2022/04/28 03:27:42;;;;;;;0.10;0.10;;;5.10;1.00;12.80;88037.00;;;;5096480;28;20221;-71
2022/04/28 03:30:11;;;;;;;0.10;0.10;;;5.20;1.00;12.80;88037.00;;;;5088440;28;20196;-71
2022/04/28 03:32:59;;;;;;;0.10;0.10;;;5.30;1.00;12.80;88037.00;;;;5092386;28;20567;-71
2022/04/28 03:35:28;;;;;;;0.10;0.10;;;5.30;1.00;12.80;88037.00;;;;5090639;28;20238;-72
2022/04/28 03:37:58;;;;;;;0.10;0.10;;;5.30;1.00;12.80;88037.00;;;;5090568;28;20690;-71
2022/04/28 03:40:29;;;;;;;0.00;0.00;;;5.30;1.00;12.80;88037.00;;;;5073163;28;20197;-71
2022/04/28 03:42:57;;;;;;;0.10;0.10;;;5.40;1.00;12.80;88037.00;;;;5090718;28;20259;-71
2022/04/28 03:45:26;;;;;;;0.08;0.08;;;5.50;1.00;12.80;88037.00;;;;5088070;28;20227;-71
2022/04/28 03:47:55;;;;;;;0.10;0.10;;;5.60;1.00;12.80;88037.00;;;;5108417;28;20197;-71
2022/04/28 03:50:28;;;;;;;0.10;0.10;;;5.50;1.00;12.80;88037.00;;;;5094168;28;20213;-71
2022/04/28 03:52:58;;;;;;;0.10;0.10;;;5.30;1.00;12.80;88037.00;;;;5093149;28;20243;-71
2022/04/28 03:55:28;;;;;;;0.00;0.00;;;5.30;1.00;12.80;88037.00;;;;5093311;28;20843;-72
2022/04/28 03:57:57;;;;;;;0.10;0.10;;;5.10;1.00;12.80;88037.00;;;;5110890;28;20254;-72
2022/04/28 04:00:26;;;;;;;0.10;0.10;;;5.00;1.00;12.80;88037.00;;;;5086434;28;20206;-72
2022/04/28 04:03:02;;;;;;;0.10;0.10;;;4.90;1.00;12.80;88037.00;;;;5092927;28;20710;-71
2022/04/28 04:05:32;;;;;;;0.03;0.03;;;4.90;1.00;12.80;88037.00;;;;5084836;28;20643;-71
2022/04/28 04:08:00;;;;;;;0.10;0.10;;;4.80;1.00;12.80;88037.00;;;;5080008;28;20662;-76
2022/04/28 04:10:35;;;;;;;0.10;0.10;;;4.70;1.00;12.80;88037.00;;;;5091642;28;20229;-72
2022/04/28 04:13:06;;;;;;;0.05;0.05;;;4.70;1.00;12.80;88037.00;;;;5110157;28;20193;-72
2022/04/28 04:15:45;;;;;;;0.10;0.10;;;4.50;1.00;12.80;88037.00;;;;5092670;28;20217;-72
2022/04/28 04:18:34;;;;;;;0.10;0.10;;;4.40;1.00;12.80;88037.00;;;;5095276;28;20236;-72
2022/04/28 04:21:08;;;;;;;0.10;0.10;;;4.40;1.00;12.80;88037.00;;;;5094964;28;20185;-72
2022/04/28 04:23:36;;;;;;;0.10;0.10;;;4.50;1.00;12.80;88037.00;;;;5093820;28;20667;-72
2022/04/28 04:26:06;;;;;;;0.10;0.10;;;4.40;1.00;12.80;88037.00;;;;5093265;28;20201;-71
2022/04/28 04:28:37;;;;;;;0.10;0.10;;;4.40;1.00;12.80;88037.00;;;;5094036;28;20557;-72
2022/04/28 04:34:13;;;;;;;0.10;0.10;;;4.40;1.00;12.80;88037.00;;;;5098843;28;20248;-71
2022/04/28 04:36:42;;;;;;;0.10;0.10;;;4.50;1.00;12.80;88037.00;;;;5097889;28;20200;-71
2022/04/28 04:39:12;;;;;;;0.10;0.10;;;4.70;1.00;12.80;88037.00;;;;5097543;28;20185;-71
2022/04/28 04:41:43;;;;;;;0.10;0.10;;;4.80;1.00;12.80;88037.00;;;;5085058;28;20193;-71
2022/04/28 04:44:13;;;;;;;0.10;0.10;;;4.90;1.00;12.80;88037.00;;;;5105724;28;20228;-71
2022/04/28 04:46:44;;;;;;;0.10;0.10;;;5.00;1.00;12.80;88037.00;;;;5099412;28;20667;-71
2022/04/28 04:49:21;;;;;;;0.10;0.10;;;5.00;1.00;12.80;88037.00;;;;5095465;28;20203;-71
2022/04/28 04:52:08;;;;;;;0.10;0.10;;;5.00;1.00;12.80;88037.00;;;;5090618;28;20276;-71
2022/04/28 04:54:58;;;;;;;0.10;0.10;;;5.00;1.00;12.80;88037.00;;;;5089503;28;20232;-73
2022/04/28 04:57:28;;;;;;;0.10;0.10;;;5.00;1.00;12.80;88037.00;;;;5093408;28;20243;-71
2022/04/28 04:59:56;;;;;;;0.00;0.00;;;4.90;1.00;12.80;88037.00;;;;5093695;28;20196;-71
2022/04/28 05:02:27;;;;;;;0.10;0.10;;;5.00;1.00;12.80;88037.00;;;;5091464;28;20712;-72
2022/04/28 05:05:33;;;;;;;0.10;0.10;;;5.00;1.00;12.80;88037.00;;;;5091929;28;20217;-74
2022/04/28 05:08:10;;;;;;;0.00;0.00;;;5.10;1.00;12.80;88037.00;;;;5109784;28;20201;-71
2022/04/28 05:10:46;;;;;;;0.10;0.10;;;5.20;1.00;12.80;88037.00;;;;5091207;28;20200;-71
2022/04/28 05:13:15;;;;;;;0.00;0.00;;;5.30;1.00;12.80;88037.00;;;;5093940;28;20626;-71
2022/04/28 05:15:50;;;;;;;0.10;0.10;;;5.20;1.00;12.80;88037.00;;;;5093884;28;20220;-71
2022/04/28 05:18:23;;;;;;;0.10;0.10;;;5.30;1.00;12.80;88037.00;;;;5092206;28;20670;-71
2022/04/28 05:21:03;;;;;;;0.10;0.10;;;5.40;1.00;12.80;88037.00;;;;5093687;28;20197;-72
2022/04/28 05:24:07;;;;;;;0.10;0.10;;;5.40;1.00;12.80;88037.00;;;;5093425;28;20264;-71
2022/04/28 05:26:53;;;;;;;0.00;0.00;;;5.40;1.00;12.80;88037.00;;;;5093962;28;20688;-71
2022/04/28 05:29:45;;;;;;;0.10;0.10;;;5.50;1.00;12.80;88037.00;;;;5080333;28;20201;-72
2022/04/28 05:32:21;;;;;;;0.10;0.10;;;5.40;1.00;12.80;88037.00;;;;5095439;28;20506;-71
2022/04/28 05:34:52;;;;;;;0.10;0.10;;;5.50;1.00;12.80;88037.00;;;;5095458;28;20245;-71
2022/04/28 05:37:23;;;;;;;0.10;0.10;;;5.50;1.00;12.80;88037.00;;;;5086542;28;20279;-71
2022/04/28 05:39:51;;;;;;;0.10;0.10;;;5.50;1.00;12.80;88037.00;;;;5091369;28;20658;-71
2022/04/28 05:45:41;;;;;;;0.10;0.10;;;5.70;1.00;12.80;88037.00;;;;5091491;28;20193;-71
2022/04/28 05:47:57;;;;;;;0.10;0.10;;;5.80;1.00;12.80;88037.00;;;;5089978;28;20258;-71
2022/04/28 05:50:26;;;;;;;0.10;0.10;;;5.80;1.00;12.80;88037.00;;;;5092494;28;20231;-72
2022/04/28 05:52:54;;;;;;;0.10;0.10;;;5.90;1.00;12.80;88037.00;;;;5089908;28;20185;-71
2022/04/28 05:55:23;;;;;;;0.10;0.10;;;6.10;1.00;12.80;88037.00;;;;5090997;28;20308;-71
2022/04/28 05:57:51;;;;;;;0.10;0.10;;;6.30;1.00;12.80;88037.00;;;;5091825;28;20719;-71
2022/04/28 06:00:21;;;;;;;0.10;0.10;;;6.40;1.00;12.80;88037.00;;;;5092036;28;20193;-71
2022/04/28 06:02:49;;;;;;;0.10;0.10;;;6.50;1.00;12.80;88037.00;;;;5091161;28;20197;-71
2022/04/28 06:05:26;;;;;;;0.05;0.05;;;6.50;1.00;12.80;88037.00;;;;5091531;28;20697;-71
2022/04/28 06:07:54;;;;;;;0.10;0.10;;;6.60;1.00;12.80;88037.00;;;;5091652;28;20193;-71
2022/04/28 06:10:23;;;;;;;0.10;0.10;;;6.60;1.00;12.80;88037.00;;;;5092012;28;20683;-71
2022/04/28 06:12:56;;;;;;;0.10;0.10;;;6.70;1.00;12.80;88037.00;;;;5091851;28;20213;-71
2022/04/28 06:15:26;;;;;;;0.10;0.10;;;6.90;1.00;12.80;88037.00;;;;5092227;28;20657;-71
2022/04/28 06:18:18;;;;;;;0.05;0.05;;;7.00;1.00;12.80;88037.00;;;;5087962;28;20197;-71
2022/04/28 06:20:47;;;;;;;0.10;0.10;;;7.10;1.00;12.80;88037.00;;;;5086507;28;20197;-71
2022/04/28 06:23:33;;;;;;;0.10;0.10;;;7.30;1.00;12.80;88037.00;;;;5087778;28;20217;-71
2022/04/28 06:26:01;;;;;;;0.10;0.10;;;7.50;1.00;12.80;88037.00;;;;5076602;28;20200;-71
2022/04/28 06:28:31;;;;;;;0.10;0.10;;;7.60;1.00;12.80;88037.00;;;;5087854;28;20685;-71
2022/04/28 06:31:02;;;;;;;0.10;0.10;;;7.70;1.00;12.80;88037.00;;;;5091178;28;20204;-72
2022/04/28 06:33:48;;;;;;;0.10;0.10;;;7.60;1.00;12.80;88037.00;;;;5091983;28;20306;-71
2022/04/28 06:36:25;;;;;;;0.10;0.10;;;7.70;1.00;12.80;88037.00;;;;5089953;28;20225;-72
2022/04/28 06:38:54;;;;;;;0.10;0.10;;;7.70;1.00;12.80;88037.00;;;;5091187;28;20193;-73
2022/04/28 06:41:23;;;;;;;0.00;0.00;;;7.80;1.00;12.80;88037.00;;;;5090919;28;20189;-73
2022/04/28 06:43:56;;;;;;;0.10;0.10;;;7.80;1.00;12.80;88037.00;;;;5090855;28;20217;-71
2022/04/28 06:46:32;;;;;;;0.10;0.10;;;7.90;1.00;12.80;88037.00;;;;5091874;28;20228;-71
2022/04/28 06:49:19;;;;;;;0.10;0.10;;;8.10;1.00;12.80;88037.00;;;;5092385;28;20330;-71
2022/04/28 06:51:47;;;;;;;0.10;0.10;;;8.30;1.00;12.80;88037.00;;;;5093329;28;20262;-71
2022/04/28 06:54:31;;;;;;;0.10;0.10;;;8.30;1.00;12.80;88037.00;;;;5095537;28;20299;-71
2022/04/28 06:57:00;;;;;;;0.10;0.10;;;8.30;1.00;12.80;88037.00;;;;5093260;28;20589;-71
2022/04/28 06:59:31;;;;;;;0.10;0.10;;;8.40;1.00;12.80;88037.00;;;;5090726;28;20189;-71
2022/04/28 07:02:01;;;;;;;0.10;0.10;;;8.60;1.00;12.80;88037.00;;;;5090400;28;20203;-71
2022/04/28 07:04:32;;;;;;;0.00;0.00;;;8.70;1.00;12.80;88037.00;;;;5089081;28;20215;-73
2022/04/28 07:07:00;;;;;;;0.10;0.10;;;8.80;1.00;12.80;88037.00;;;;5090416;28;20212;-70
2022/04/28 07:09:28;;;;;;;0.10;0.10;;;8.90;1.00;12.80;88037.00;;;;5090563;28;20258;-73
2022/04/28 07:12:16;;;;;;;0.10;0.10;;;9.00;1.00;12.80;88037.00;;;;5091128;28;20276;-73
2022/04/28 07:14:56;;;;;;;0.10;0.10;;;9.10;1.00;12.80;88037.00;;;;5087625;28;20285;-73
2022/04/28 07:17:40;;;;;;;0.03;0.03;;;9.30;1.00;12.80;88037.00;;;;5086440;28;20239;-71
2022/04/28 07:20:10;;;;;;;0.10;0.10;;;9.50;1.00;12.80;88037.00;;;;5100845;28;20686;-73
2022/04/28 07:22:40;;;;;;;0.10;0.10;;;9.70;1.00;12.80;88037.00;;;;5072351;28;20209;-71
2022/04/28 07:25:10;;;;;;;0.10;0.10;;;10.00;1.00;12.80;88037.00;;;;5087015;28;20233;-71
2022/04/28 07:27:38;;;;;;;0.10;0.10;;;10.30;99.90;12.80;88037.00;;;;5086960;28;20221;-71
2022/04/28 07:30:20;;;;;;;0.10;0.10;;;10.60;99.90;12.80;88037.00;;;;5077794;28;20726;-71
2022/04/28 07:32:51;;;;;;;0.10;0.10;;;10.90;99.90;12.80;88037.00;;;;5097663;28;20292;-71
2022/04/28 07:35:23;;;;;;;0.10;0.10;;;11.10;99.90;12.80;88037.00;;;;5080008;28;20695;-73
2022/04/28 07:38:14;;;;;;;0.10;0.10;;;11.20;1.00;12.80;88037.00;;;;5076215;28;20223;-70
2022/04/28 07:41:02;;;;;;;0.10;0.10;;;11.40;1.00;12.80;88037.00;;;;5074300;28;20205;-71
2022/04/28 07:43:31;;;;;;;0.10;0.10;;;11.50;1.00;12.80;88037.00;;;;5089682;28;20206;-73
2022/04/28 07:46:00;;;;;;;0.10;0.10;;;11.80;1.00;12.80;88037.00;;;;5072901;28;20312;-70
2022/04/28 07:48:29;;;;;;;0.10;0.10;;;11.80;99.90;12.80;88037.00;;;;5085208;28;20663;-70
2022/04/28 07:50:58;;;;;;;0.10;0.10;;;12.00;99.90;12.80;88037.00;;;;5071688;28;20200;-72
2022/04/28 07:53:29;;;;;;;0.10;0.10;;;12.10;83.80;12.80;88037.00;;;;5086894;28;20201;-71
2022/04/28 07:56:14;;;;;;;0.10;0.10;;;12.20;1.00;12.80;88037.00;;;;5069235;28;20412;-71
2022/04/28 07:58:45;;;;;;;0.00;0.00;;;12.40;1.00;12.80;88037.00;;;;5086754;28;20627;-71
2022/04/28 08:01:45;;;;;;;0.10;0.10;;;12.50;99.90;12.80;88037.00;;;;5086361;28;20204;-71
2022/04/28 08:04:15;;;;;;;0.00;0.00;;;12.50;99.90;12.80;88037.00;;;;5067586;28;20213;-71
2022/04/28 08:06:49;;;;;;;0.00;0.00;;;12.60;99.90;12.80;88037.00;;;;5065843;28;20193;-72
2022/04/28 08:09:17;;;;;;;0.10;0.10;;;12.80;99.90;12.80;88037.00;;;;5084202;28;20204;-71
2022/04/28 08:11:45;;;;;;;0.10;0.10;;;13.00;99.90;12.80;88037.00;;;;5061120;28;20206;-71
2022/04/28 08:14:13;;;;;;;0.00;0.00;;;13.20;1.00;12.80;88037.00;;;;5069226;28;20276;-71
2022/04/28 08:16:42;;;;;;;0.10;0.10;;;13.10;84.00;12.80;88037.00;;;;5085883;28;20300;-71
2022/04/28 08:19:10;;;;;;;0.10;0.10;;;13.30;1.00;12.80;88037.00;;;;5086317;28;20309;-71
2022/04/28 08:21:50;;;;;;;0.10;0.10;;;13.40;1.00;12.80;88037.00;;;;5069559;28;20205;-71
2022/04/28 08:24:19;;;;;;;0.05;0.05;;;13.70;1.00;12.80;88037.00;;;;5067105;28;20247;-71
2022/04/28 08:26:49;;;;;;;0.10;0.10;;;13.80;1.00;12.80;88037.00;;;;5069886;28;20214;-71
2022/04/28 08:29:18;;;;;;;0.10;0.10;;;13.90;99.90;12.80;88037.00;;;;5074856;28;20194;-71
2022/04/28 08:31:51;;;;;;;0.10;0.10;;;14.00;1.00;12.80;88037.00;;;;5073054;28;20205;-71
2022/04/28 08:34:22;;;;;;;0.00;0.00;;;14.00;1.00;12.80;88037.00;;;;5074071;28;20263;-72
2022/04/28 08:36:53;;;;;;;0.00;0.00;;;13.80;1.00;12.80;88037.00;;;;5089371;28;20223;-72
2022/04/28 08:39:24;;;;;;;0.00;0.00;;;13.80;1.00;12.80;88037.00;;;;5077253;28;20196;-70
2022/04/28 08:41:53;;;;;;;0.00;0.00;;;13.90;10.60;12.80;88037.00;;;;5090037;28;20189;-71
2022/04/28 08:44:26;;;;;;;0.10;0.10;;;13.90;1.00;12.80;88037.00;;;;5071944;28;20225;-71
2022/04/28 08:47:25;;;;;;;0.10;0.10;;;14.00;1.00;12.80;88037.00;;;;5071737;28;20213;-71
2022/04/28 08:50:13;;;;;;;0.10;0.10;;;14.40;99.90;12.80;88037.00;;;;5070362;28;20316;-70
2022/04/28 08:52:56;;;;;;;0.00;0.00;;;14.80;1.00;12.80;88037.00;;;;5073552;28;20796;-71
2022/04/28 08:55:35;;;;;;;0.00;0.00;;;15.10;1.00;12.80;88037.00;;;;5072777;28;20217;-71
2022/04/28 08:58:05;;;;;;;0.00;0.00;;;15.40;1.00;12.80;88037.00;;;;5062822;28;20229;-71
2022/04/28 09:00:39;;;;;;;0.10;0.10;;;15.70;99.90;12.80;88037.00;;;;5072908;28;20258;-71
2022/04/28 09:03:30;;;;;;;0.00;0.00;;;15.80;1.00;12.80;88037.00;;;;5063855;28;20201;-71
2022/04/28 09:06:41;;;;;;;0.10;0.10;;;15.40;99.90;12.80;88037.00;;;;5077176;28;20255;-72
2022/04/28 09:09:30;;;;;;;0.00;0.00;;;15.60;1.00;12.80;88037.00;;;;5075487;28;20220;-72
2022/04/28 09:12:22;;;;;;;0.10;0.10;;;15.80;99.90;12.80;88037.00;;;;5074271;28;20229;-72
2022/04/28 09:15:16;;;;;;;0.08;0.08;;;16.10;97.10;12.80;88037.00;;;;5073843;28;20237;-71
2022/04/28 09:18:05;;;;;;;0.00;0.00;;;16.30;1.00;12.80;88037.00;;;;5074189;28;20261;-71
2022/04/28 09:20:35;;;;;;;0.10;0.10;;;16.50;56.00;12.80;88037.00;;;;5074456;28;20380;-71
2022/04/28 09:23:10;;;;;;;0.00;0.00;;;16.60;92.40;12.80;88037.00;;;;5075258;28;20218;-71
2022/04/28 09:25:46;;;;;;;0.10;0.10;;;16.70;1.00;12.80;88037.00;;;;5092518;28;20220;-71
2022/04/28 09:28:15;;;;;;;0.00;0.00;;;16.60;99.90;12.80;88037.00;;;;5075247;28;20193;-71
2022/04/28 09:30:49;;;;;;;0.00;0.00;;;16.60;1.00;12.80;88037.00;;;;5067293;28;20265;-71
2022/04/28 09:33:46;;;;;;;0.00;0.00;;;16.70;1.00;12.80;88037.00;;;;5072145;28;20214;-71
2022/04/28 09:36:39;;;;;;;0.00;0.00;;;16.70;99.90;12.80;88037.00;;;;5055879;28;20225;-71
2022/04/28 09:45:13;;;;;;;0.00;0.00;;;17.30;1.00;12.80;88037.00;;;;5048394;28;20308;-71
2022/04/28 09:47:46;;;;;;;0.00;0.00;;;17.40;1.00;12.80;88037.00;;;;5067387;28;20201;-71
2022/04/28 09:50:18;;;;;;;0.00;0.00;;;16.90;1.00;12.80;88037.00;;;;5063242;28;20260;-71
2022/04/28 09:53:08;;;;;;;0.00;0.00;;;17.10;1.00;12.80;88037.00;;;;5071286;28;20279;-71
2022/04/28 09:55:59;;;;;;;0.00;0.00;;;17.40;1.00;12.80;88037.00;;;;5084037;28;20213;-71
2022/04/28 09:58:39;;;;;;;0.00;0.00;;;17.60;1.00;12.80;88037.00;;;;5073412;28;20220;-73
2022/04/28 10:01:09;;;;;;;0.00;0.00;;;17.60;1.00;12.80;88037.00;;;;5089084;28;20213;-72
2022/04/28 10:03:41;;;;;;;0.00;0.00;;;17.70;1.00;12.80;88037.00;;;;5077210;28;20197;-72
2022/04/28 10:06:14;;;;;;;0.00;0.00;;;17.80;1.00;12.80;88037.00;;;;5071115;28;20259;-72
2022/04/28 10:08:48;;;;;;;0.00;0.00;;;18.10;99.90;12.80;88037.00;;;;5072795;28;20212;-73
2022/04/28 10:11:22;;;;;;;0.00;0.00;;;18.10;99.90;12.80;88037.00;;;;5090839;28;20193;-72
2022/04/28 10:13:54;;;;;;;0.00;0.00;;;18.30;99.90;12.80;88037.00;;;;5070233;28;20229;-72
2022/04/28 10:16:25;;;;;;;0.00;0.00;;;18.40;1.00;12.80;88037.00;;;;5070183;28;20198;-72
2022/04/28 10:19:02;;;;;;;0.00;0.00;;;18.60;1.00;12.80;88037.00;;;;5069771;28;20204;-72
2022/04/28 10:21:40;;;;;;;0.00;0.00;;;18.60;97.50;12.80;88037.00;;;;5067973;28;20201;-73
2022/04/28 10:33:18;;;;;;;0.00;0.00;;;18.00;99.60;12.80;88037.00;;;;5071062;28;20607;-72
2022/04/28 10:35:54;;;;;;;0.00;0.00;;;17.90;99.40;12.80;88037.00;;;;5061841;28;20584;-72
2022/04/28 10:38:26;;;;;;;0.00;0.00;;;17.80;99.90;12.80;88037.00;;;;5067491;28;20213;-72
2022/04/28 10:41:01;;;;;;;0.00;0.00;;;17.50;99.90;12.80;88037.00;;;;5071779;28;20268;-72
2022/04/28 10:43:38;;;;;;;0.00;0.00;;;17.50;99.90;12.80;88037.00;;;;5066672;28;20802;-72
2022/04/28 10:46:33;;;;;;;0.00;0.00;;;17.10;99.60;12.80;88037.00;;;;5070000;28;20197;-72
2022/04/28 10:49:05;;;;;;;0.00;0.00;;;16.60;99.90;12.80;88037.00;;;;5070474;28;20198;-73
2022/04/28 10:51:34;;;;;;;0.00;0.00;;;16.70;99.10;12.80;88037.00;;;;5069130;28;20186;-72
2022/04/28 10:54:14;;;;;;;0.00;0.00;;;16.40;99.50;12.80;88037.00;;;;5070687;28;20903;-72
2022/04/28 10:57:06;;;;;;;0.00;0.00;;;16.30;99.40;12.80;88037.00;;;;5069555;28;20209;-73
2022/04/28 10:59:48;;;;;;;0.00;0.00;;;16.60;99.60;12.80;88037.00;;;;5069148;28;20202;-73
2022/04/28 11:02:44;;;;;;;0.00;0.00;;;16.90;99.00;12.80;88037.00;;;;5069399;28;20197;-73
2022/04/28 11:05:37;;;;;;;0.00;0.00;;;17.30;98.90;12.80;88037.00;;;;5078492;28;20220;-73
2022/04/28 11:08:10;;;;;;;0.00;0.00;;;17.80;98.20;12.80;88037.00;;;;5067705;28;20209;-71
2022/04/28 11:11:09;;;;;;;0.00;0.00;;;18.30;97.00;12.80;88037.00;;;;5070566;28;20674;-72
2022/04/28 11:13:38;;;;;;;0.00;0.00;;;18.30;97.10;12.80;88037.00;;;;5069223;28;20262;-72
2022/04/28 11:16:08;;;;;;;0.00;0.00;;;18.50;96.80;12.80;88037.00;;;;5067109;28;20189;-71
2022/04/28 11:18:38;;;;;;;0.00;0.00;;;18.50;96.60;12.80;88037.00;;;;5070431;28;20221;-71
2022/04/28 11:21:07;;;;;;;0.00;0.00;;;18.40;97.00;12.80;88037.00;;;;5070671;28;20617;-71
2022/04/28 11:23:40;;;;;;;0.00;0.00;;;18.50;96.90;12.80;88037.00;;;;5070413;28;20240;-71
2022/04/28 11:26:28;;;;;;;0.00;0.00;;;18.50;96.40;12.80;88037.00;;;;5065865;28;20273;-71
2022/04/28 11:29:17;;;;;;;0.00;0.00;;;18.60;96.60;12.80;88037.00;;;;5069858;28;20209;-72
2022/04/28 11:31:49;;;;;;;0.10;0.10;;;18.30;96.00;12.80;88037.00;;;;5067166;28;20193;-72
2022/04/28 11:34:18;;;;;;;0.00;0.00;;;18.00;96.40;12.80;88037.00;;;;5068223;28;20210;-72
2022/04/28 11:36:47;;;;;;;0.00;0.00;;;17.70;96.60;12.80;88037.00;;;;5065436;28;20194;-72
2022/04/28 11:39:15;;;;;;;0.00;0.00;;;17.80;97.20;12.80;88037.00;;;;5070315;28;20574;-72
2022/04/28 11:41:43;;;;;;;0.00;0.00;;;18.10;96.30;12.80;88037.00;;;;5070236;28;20197;-72
2022/04/28 11:44:17;;;;;;;0.00;0.00;;;18.30;96.00;12.80;88037.00;;;;5070102;28;20236;-72
2022/04/28 11:46:50;;;;;;;0.00;0.00;;;18.50;95.70;12.80;88037.00;;;;5069826;28;20186;-71
2022/04/28 11:49:21;;;;;;;0.00;0.00;;;18.60;95.60;12.80;88037.00;;;;5067759;28;20194;-72
2022/04/28 11:51:49;;;;;;;0.00;0.00;;;18.80;95.30;12.80;88037.00;;;;5067647;28;20201;-72
2022/04/28 11:54:23;;;;;;;0.00;0.00;;;18.90;95.10;12.80;88037.00;;;;5067904;28;20236;-72
2022/04/28 11:56:51;;;;;;;0.00;0.00;;;19.00;94.80;12.80;88037.00;;;;5067301;28;20200;-72
2022/04/28 11:59:19;;;;;;;0.00;0.00;;;19.00;95.00;12.80;88037.00;;;;5070166;28;20721;-72
2022/04/28 12:01:48;;;;;;;0.00;0.00;;;18.90;94.90;12.80;88037.00;;;;5061211;28;20247;-72
2022/04/28 12:04:17;;;;;;;0.00;0.00;;;18.90;95.00;12.80;88037.00;;;;5078335;28;20223;-72
2022/04/28 12:06:49;;;;;;;0.00;0.00;;;18.70;95.20;12.80;88037.00;;;;5075170;28;20552;-72
2022/04/28 12:14:51;;;;;;;0.00;0.00;;;18.40;95.70;12.80;88037.00;;;;5073882;28;20221;-72